createdAt,value
2023-04-27T00:03:37.943Z,73.88
2023-04-27T00:07:41.224Z,74.03
2023-04-27T00:11:44.885Z,73.36
2023-04-27T00:15:47.485Z,72.29
2023-04-27T00:19:52.203Z,71.26
2023-04-27T00:23:55.483Z,72.03
2023-04-27T00:27:58.194Z,72.58
2023-04-27T00:32:00.833Z,73.55
2023-04-27T00:36:05.275Z,73.61
2023-04-27T00:40:09.234Z,72.60
2023-04-27T00:44:11.849Z,72.45
2023-04-27T00:48:14.569Z,72.49
2023-04-27T00:52:19.065Z,72.74
2023-04-27T00:56:21.779Z,73.46
2023-04-27T01:00:24.710Z,74.45
2023-04-27T01:04:28.703Z,74.29
2023-04-27T01:08:33.010Z,72.91
2023-04-27T01:12:35.696Z,73.67
2023-04-27T01:16:38.911Z,72.41
2023-04-27T01:20:42.299Z,73.41
2023-04-27T01:24:47.022Z,73.84
2023-04-27T01:28:49.814Z,73.70
2023-04-27T01:32:52.537Z,74.02
2023-04-27T01:36:55.227Z,74.03
2023-04-27T01:41:01.970Z,74.20
2023-04-27T01:45:05.448Z,74.34
2023-04-27T01:49:08.998Z,74.52
2023-04-27T01:53:11.601Z,74.29
2023-04-27T01:57:16.041Z,74.77
2023-04-27T02:01:18.665Z,75.73
2023-04-27T02:05:21.362Z,76.37
2023-04-27T02:09:23.950Z,75.83
2023-04-27T02:13:27.839Z,75.67
2023-04-27T02:17:31.282Z,76.52
2023-04-27T02:21:33.891Z,76.71
2023-04-27T02:25:37.885Z,76.86
2023-04-27T02:29:41.871Z,77.00
2023-04-27T02:33:44.791Z,76.94
2023-04-27T02:37:47.495Z,76.12
2023-04-27T02:41:50.085Z,75.09
2023-04-27T02:45:54.025Z,74.60
2023-04-27T02:49:56.602Z,74.47
2023-04-27T02:53:59.213Z,75.04
2023-04-27T02:58:01.963Z,75.12
2023-04-27T03:02:05.946Z,75.88
2023-04-27T03:06:08.648Z,76.00
2023-04-27T03:10:12.237Z,76.24
2023-04-27T03:14:14.851Z,76.06
2023-04-27T03:18:18.801Z,75.15
2023-04-27T03:22:21.523Z,75.09
2023-04-27T03:26:24.812Z,75.49
2023-04-27T03:30:27.412Z,75.33
2023-04-27T03:34:31.360Z,75.57
2023-04-27T03:38:34.833Z,76.25
2023-04-27T03:42:37.402Z,76.87
2023-04-27T03:46:40.051Z,77.10
2023-04-27T03:50:44.649Z,76.21
2023-04-27T03:54:47.262Z,86.30
2023-04-27T03:58:49.881Z,88.72
2023-04-27T04:02:53.363Z,77.98
2023-04-27T04:06:57.596Z,76.85
2023-04-27T04:11:00.174Z,75.26
2023-04-27T04:15:03.648Z,75.94
2023-04-27T04:19:06.619Z,74.71
2023-04-27T04:23:10.554Z,74.81
2023-04-27T04:27:13.124Z,75.30
2023-04-27T04:31:17.573Z,75.71
2023-04-27T04:35:20.924Z,75.87
2023-04-27T04:39:24.921Z,76.06
2023-04-27T04:43:27.766Z,76.41
2023-04-27T04:47:31.770Z,77.16
2023-04-27T04:51:34.636Z,76.98
2023-04-27T04:55:38.779Z,75.58
2023-04-27T04:59:42.253Z,76.14
2023-04-27T05:03:45.134Z,76.55
2023-04-27T05:07:47.877Z,76.19
2023-04-27T05:11:52.293Z,76.12
2023-04-27T05:15:55.683Z,75.51
2023-04-27T05:19:58.294Z,74.79
2023-04-27T05:24:01.898Z,74.43
2023-04-27T05:28:06.069Z,73.59
2023-04-27T05:32:08.750Z,74.12
2023-04-27T05:36:11.386Z,73.90
2023-04-27T05:40:16.910Z,73.82
2023-04-27T05:44:21.063Z,74.97
2023-04-27T05:48:23.645Z,73.79
2023-04-27T05:52:30.938Z,73.86
2023-04-27T05:56:33.595Z,73.21
2023-04-27T06:00:38.468Z,73.03
2023-04-27T06:04:41.134Z,72.28
2023-04-27T06:08:43.768Z,71.48
2023-04-27T06:12:46.573Z,71.64
2023-04-27T06:16:50.577Z,71.42
2023-04-27T06:20:53.375Z,71.77
2023-04-27T06:24:55.982Z,71.49
2023-04-27T06:28:58.714Z,71.06
2023-04-27T06:33:02.765Z,70.93
2023-04-27T06:37:05.451Z,70.95
2023-04-27T06:41:08.056Z,71.16
2023-04-27T06:45:11.712Z,69.88
2023-04-27T06:49:16.074Z,69.59
2023-04-27T06:53:19.844Z,68.35
2023-04-27T06:57:23.047Z,67.81
2023-04-27T07:01:25.795Z,67.12
2023-04-27T07:05:29.731Z,66.10
2023-04-27T07:09:32.817Z,66.10
2023-04-27T07:13:35.871Z,63.42
2023-04-27T07:17:39.372Z,63.73
2023-04-27T07:21:43.367Z,63.21
2023-04-27T07:25:46.454Z,63.17
2023-04-27T07:29:49.213Z,60.45
2023-04-27T07:33:52.868Z,60.58
2023-04-27T07:37:56.847Z,60.40
2023-04-27T07:41:59.897Z,59.50
2023-04-27T07:46:03.657Z,59.60
2023-04-27T07:50:08.374Z,58.54
2023-04-27T07:54:12.465Z,55.72
2023-04-27T07:58:15.821Z,56.12
2023-04-27T08:02:20.272Z,56.49
2023-04-27T08:06:23.727Z,56.26
2023-04-27T08:10:28.100Z,56.30
2023-04-27T08:14:30.879Z,54.65
2023-04-27T08:18:33.703Z,52.94
2023-04-27T08:22:36.413Z,51.40
2023-04-27T08:26:42.009Z,50.77
2023-04-27T08:30:44.768Z,51.22
2023-04-27T08:34:47.825Z,51.48
2023-04-27T08:38:50.544Z,52.64
2023-04-27T08:42:59.832Z,51.74
2023-04-27T08:47:05.258Z,52.64
2023-04-27T08:51:11.803Z,53.42
2023-04-27T08:55:16.443Z,52.47
2023-04-27T08:59:21.818Z,51.56
2023-04-27T09:03:25.730Z,52.58
2023-04-27T09:07:28.774Z,52.13
2023-04-27T09:11:33.808Z,50.25
2023-04-27T09:15:47.116Z,49.12
2023-04-27T09:19:51.820Z,48.18
2023-04-27T09:23:55.771Z,48.68
2023-04-27T09:28:00.781Z,47.60
2023-04-27T09:32:17.355Z,46.69
2023-04-27T09:36:21.433Z,46.26
2023-04-27T09:40:26.776Z,41.30
2023-04-27T09:44:30.770Z,40.80
2023-04-27T09:48:34.742Z,40.81
2023-04-27T09:52:37.403Z,42.77
2023-04-27T09:56:49.563Z,40.51
2023-04-27T10:00:58.420Z,41.94
2023-04-27T10:05:26.248Z,39.46
2023-04-27T10:09:31.762Z,41.33
2023-04-27T10:13:34.612Z,37.47
2023-04-27T10:17:37.410Z,38.78
2023-04-27T10:21:52.682Z,37.82
2023-04-27T10:25:55.945Z,36.70
2023-04-27T10:30:11.077Z,35.73
2023-04-27T10:34:21.174Z,36.80
2023-04-27T10:38:30.887Z,35.16
2023-04-27T10:42:33.782Z,35.26
2023-04-27T10:46:37.461Z,37.31
2023-04-27T10:50:40.470Z,34.80
2023-04-27T10:54:48.750Z,33.87
2023-04-27T10:58:51.455Z,33.78
2023-04-27T11:02:55.829Z,35.96
2023-04-27T11:06:58.798Z,36.22
2023-04-27T11:11:03.780Z,36.32
2023-04-27T11:15:07.863Z,35.00
2023-04-27T11:19:10.513Z,35.86
2023-04-27T11:23:24.350Z,33.88
2023-04-27T11:27:37.736Z,34.51
2023-04-27T11:31:43.495Z,33.97
2023-04-27T11:35:46.311Z,33.50
2023-04-27T11:39:48.968Z,33.58
2023-04-27T11:43:52.929Z,34.09
2023-04-27T11:47:55.721Z,30.14
2023-04-27T11:51:58.744Z,32.09
2023-04-27T11:56:02.544Z,31.50
2023-04-27T12:00:11.296Z,31.74
2023-04-27T12:04:15.013Z,32.59
2023-04-27T12:08:18.130Z,33.53
2023-04-27T12:12:22.461Z,31.41
2023-04-27T12:16:26.835Z,31.48
2023-04-27T12:20:29.447Z,30.17
2023-04-27T12:24:32.360Z,31.92
2023-04-27T12:28:35.186Z,29.69
2023-04-27T12:32:39.720Z,30.80
2023-04-27T12:36:42.563Z,33.16
2023-04-27T12:40:45.728Z,30.64
2023-04-27T12:44:48.418Z,32.24
2023-04-27T12:48:52.415Z,32.22
2023-04-27T12:52:55.044Z,32.58
2023-04-27T12:56:57.889Z,33.72
2023-04-27T13:01:00.536Z,35.57
2023-04-27T13:05:07.782Z,31.98
2023-04-27T13:09:10.463Z,30.93
2023-04-27T13:13:13.665Z,30.17
2023-04-27T13:17:16.260Z,30.15
2023-04-27T13:21:20.612Z,31.90
2023-04-27T13:25:23.681Z,30.63
2023-04-27T13:29:26.685Z,30.75
2023-04-27T13:33:29.390Z,30.82
2023-04-27T13:37:33.620Z,31.88
2023-04-27T13:41:36.270Z,30.89
2023-04-27T13:45:40.680Z,32.83
2023-04-27T13:49:43.270Z,30.91
2023-04-27T13:53:47.378Z,29.88
2023-04-27T13:57:50.008Z,31.52
2023-04-27T14:01:52.667Z,30.93
2023-04-27T14:05:56.117Z,32.63
2023-04-27T14:10:00.276Z,32.71
2023-04-27T14:14:03.771Z,32.26
2023-04-27T14:18:07.795Z,32.22
2023-04-27T14:22:11.158Z,32.77
2023-04-27T14:26:15.840Z,31.13
2023-04-27T14:30:18.573Z,32.29
2023-04-27T14:34:21.761Z,32.77
2023-04-27T14:38:24.798Z,32.64
2023-04-27T14:42:29.642Z,32.94
2023-04-27T14:46:32.330Z,34.43
2023-04-27T14:50:35.113Z,34.56
2023-04-27T14:54:38.726Z,33.17
2023-04-27T14:58:42.700Z,32.07
2023-04-27T15:02:46.681Z,31.99
2023-04-27T15:06:49.307Z,32.42
2023-04-27T15:10:51.913Z,31.59
2023-04-27T15:14:56.264Z,31.80
2023-04-27T15:18:58.855Z,34.43
2023-04-27T15:23:01.507Z,31.72
2023-04-27T15:27:04.365Z,30.85
2023-04-27T15:31:08.356Z,31.00
2023-04-27T15:35:11.109Z,32.90
2023-04-27T15:39:14.050Z,33.74
2023-04-27T15:43:16.863Z,34.07
2023-04-27T15:47:21.306Z,32.52
2023-04-27T15:51:23.934Z,33.38
2023-04-27T15:55:26.708Z,33.59
2023-04-27T15:59:29.379Z,33.04
2023-04-27T16:03:34.761Z,33.89
2023-04-27T16:07:39.636Z,35.16
2023-04-27T16:11:42.673Z,33.48
2023-04-27T16:15:45.460Z,32.35
2023-04-27T16:19:49.506Z,32.06
2023-04-27T16:23:52.116Z,31.41
2023-04-27T16:27:54.760Z,31.98
2023-04-27T16:31:57.379Z,35.02
2023-04-27T16:36:01.671Z,34.28
2023-04-27T16:40:06.996Z,36.34
2023-04-27T16:44:09.786Z,35.03
2023-04-27T16:48:12.601Z,34.79
2023-04-27T16:52:17.159Z,35.44
2023-04-27T16:56:26.362Z,34.76
2023-04-27T17:00:29.510Z,34.27
2023-04-27T17:04:35.260Z,34.34
2023-04-27T17:08:39.434Z,34.52
2023-04-27T17:12:42.073Z,35.83
2023-04-27T17:16:44.751Z,35.83
2023-04-27T17:20:47.468Z,36.79
2023-04-27T17:24:51.512Z,37.31
2023-04-27T17:28:59.765Z,37.29
2023-04-27T17:33:03.215Z,41.34
2023-04-27T17:37:05.959Z,38.02
2023-04-27T17:41:10.051Z,40.10
2023-04-27T17:45:13.596Z,41.08
2023-04-27T17:49:17.589Z,41.05
2023-04-27T17:53:20.218Z,43.24
2023-04-27T17:57:24.402Z,42.79
2023-04-27T18:01:27.155Z,43.44
2023-04-27T18:05:29.895Z,44.87
2023-04-27T18:09:33.079Z,46.08
2023-04-27T18:13:37.783Z,46.45
2023-04-27T18:17:40.418Z,46.15
2023-04-27T18:21:43.224Z,46.20
2023-04-27T18:25:46.024Z,47.40
2023-04-27T18:29:51.897Z,48.39
2023-04-27T18:33:54.555Z,48.38
2023-04-27T18:37:57.572Z,47.59
2023-04-27T18:42:00.229Z,48.69
2023-04-27T18:46:04.665Z,50.80
2023-04-27T18:50:08.772Z,51.40
2023-04-27T18:54:11.491Z,52.51
2023-04-27T18:58:14.177Z,53.60
2023-04-27T19:02:18.245Z,54.48
2023-04-27T19:06:21.381Z,56.04
2023-04-27T19:10:24.197Z,56.60
2023-04-27T19:14:26.849Z,57.80
2023-04-27T19:18:30.960Z,58.23
2023-04-27T19:22:34.928Z,58.82
2023-04-27T19:26:37.805Z,58.69
2023-04-27T19:30:40.660Z,57.85
2023-04-27T19:34:44.714Z,57.24
2023-04-27T19:38:47.319Z,57.91
2023-04-27T19:42:50.458Z,58.64
2023-04-27T19:46:53.070Z,58.56
2023-04-27T19:50:57.181Z,59.42
2023-04-27T19:55:00.105Z,60.36
2023-04-27T19:59:02.905Z,60.78
2023-04-27T20:03:06.434Z,61.21
2023-04-27T20:07:11.253Z,61.05
2023-04-27T20:11:14.536Z,61.17
2023-04-27T20:15:17.329Z,61.09
2023-04-27T20:19:20.862Z,62.10
2023-04-27T20:23:24.987Z,62.22
2023-04-27T20:27:27.946Z,63.24
2023-04-27T20:31:31.538Z,63.22
2023-04-27T20:35:36.259Z,62.31
2023-04-27T20:39:40.357Z,61.68
2023-04-27T20:43:45.620Z,61.95
2023-04-27T20:47:48.470Z,62.36
2023-04-27T20:51:51.282Z,62.39
2023-04-27T20:55:55.221Z,62.63
2023-04-27T20:59:57.840Z,63.59
2023-04-27T21:04:01.676Z,64.04
2023-04-27T21:08:04.694Z,63.87
2023-04-27T21:12:09.004Z,63.96
2023-04-27T21:16:11.649Z,63.64
2023-04-27T21:20:14.331Z,63.74
2023-04-27T21:24:16.960Z,63.83
2023-04-27T21:28:21.575Z,64.81
2023-04-27T21:32:24.186Z,65.73
2023-04-27T21:36:26.892Z,66.22
2023-04-27T21:40:29.476Z,66.38
2023-04-27T21:44:33.440Z,66.57
2023-04-27T21:48:36.199Z,66.54
2023-04-27T21:52:38.932Z,66.53
2023-04-27T21:56:41.680Z,66.12
2023-04-27T22:00:45.625Z,65.57
2023-04-27T22:04:49.897Z,65.90
2023-04-27T22:08:52.772Z,65.87
2023-04-27T22:12:56.823Z,66.59
2023-04-27T22:17:02.230Z,67.52
2023-04-27T22:21:05.246Z,67.28
2023-04-27T22:25:08.877Z,67.01
2023-04-27T22:29:12.076Z,67.37
2023-04-27T22:33:16.674Z,67.12
2023-04-27T22:37:19.854Z,68.06
2023-04-27T22:41:22.534Z,68.00
2023-04-27T22:45:25.321Z,68.32
2023-04-27T22:49:29.613Z,68.29
2023-04-27T22:53:32.213Z,68.61
2023-04-27T22:57:34.844Z,69.26
2023-04-27T23:01:37.502Z,69.00
2023-04-27T23:05:42.384Z,69.60
2023-04-27T23:09:45.755Z,69.91
2023-04-27T23:13:50.576Z,69.70
2023-04-27T23:17:53.246Z,69.79
2023-04-27T23:21:57.190Z,70.46
2023-04-27T23:25:59.794Z,70.88
2023-04-27T23:30:02.818Z,69.96
2023-04-27T23:34:05.447Z,70.00
2023-04-27T23:38:09.395Z,70.68
2023-04-27T23:42:12.024Z,70.33
2023-04-27T23:46:15.186Z,70.35
2023-04-27T23:50:17.995Z,69.41
2023-04-27T23:54:21.976Z,70.15
2023-04-27T23:58:26.069Z,70.42
